Terminal Aerodrome Forecast
Issued by NWS Cleveland, OH

Home | Current Version | Previous Version | Graphics & Text | Print | Product List | Glossary On
Versions: 1 2 3 4 5 6 7 8 9 10 11 12 13 14 15 16 17 18 19
000
FTUS41 KCLE 211700
TAFERI
TAF
KERI 211730Z 2118/2218 34010KT P6SM VCSH OVC015
     FM212100 36012G20KT P6SM VCSH OVC025
     FM220300 01010KT P6SM OVC015
      TEMPO 2203/2207 -SHRA
     FM220900 02008KT P6SM OVC025
     FM221500 02010KT P6SM OVC035=

USA.gov is the U.S. government's official web portal to all federal, state and local government web resources and services.